KDRI/DRI METAR and TAF weather

Enter ICAO airport designator
Station Type Date Time Source
KDRI METAR 2022/08/12 15:35 UTC NOAA

KDRI 121535Z AUTO 06006KT SCT015 SCT021 28/23 A3004 RMK AO2 LTG DSNT S T02810231 PWINO


Station Type Date Time Source
KDRI Decoded METAR 2022/08/12 15:35 UTC NOAA

De Ridder, Beauregard Parish Airport, LA, United States (KDRI) 30-49-54N 093-20-23W
Aug 12, 2022 - 11:35 AM EDT / 2022.08.12 1535 UTC
Wind: from the ENE (060 degrees) at 7 MPH (6 KT):0
Sky conditions: partly cloudy
Weather: Lightning observed
Temperature: 82.6 F (28.1 C)
Dew Point: 73.6 F (23.1 C)
Relative Humidity: 74%
Pressure (altimeter): 30.04 in. Hg (1017 hPa)
ob: KDRI 121535Z AUTO 06006KT SCT015 SCT021 28/23 A3004 RMK AO2 LTG DSNT S T02810231 PWINO
cycle: 15

Station Type Date Time Source
KDRI TAF UTC NOAA

Error!

Example: see airport list